createdAt,value
2017-06-22T00:00:03.509Z,0
2017-06-22T00:00:43.969Z,0
2017-06-22T00:01:24.432Z,0
2017-06-22T00:02:04.888Z,0
2017-06-22T00:02:45.351Z,0
2017-06-22T00:03:25.814Z,0
2017-06-22T00:04:06.267Z,0
2017-06-22T00:04:46.726Z,0
2017-06-22T00:05:27.189Z,0
2017-06-22T00:06:07.646Z,0
2017-06-22T00:06:48.108Z,0
2017-06-22T00:07:28.571Z,0
2017-06-22T00:08:09.027Z,0
2017-06-22T00:08:49.484Z,0
2017-06-22T00:09:29.944Z,0
2017-06-22T00:10:10.405Z,0
2017-06-22T00:10:50.870Z,0
2017-06-22T00:11:31.334Z,0
2017-06-22T00:12:11.794Z,0
2017-06-22T00:12:52.253Z,0
2017-06-22T00:13:32.711Z,0
2017-06-22T00:14:13.170Z,0
2017-06-22T00:14:53.631Z,0
2017-06-22T00:15:34.094Z,0
2017-06-22T00:16:14.589Z,0
2017-06-22T00:16:55.055Z,0
2017-06-22T00:17:35.504Z,0
2017-06-22T00:18:15.962Z,0
2017-06-22T00:18:56.424Z,0
2017-06-22T00:19:36.884Z,0
2017-06-22T00:20:17.342Z,0
2017-06-22T00:20:57.810Z,0
2017-06-22T00:21:38.268Z,0
2017-06-22T00:22:18.730Z,0
2017-06-22T00:22:59.193Z,0
2017-06-22T00:23:39.651Z,0
2017-06-22T00:24:20.116Z,0
2017-06-22T00:25:00.576Z,0
2017-06-22T00:25:41.037Z,0
2017-06-22T00:26:21.495Z,0
2017-06-22T00:27:01.951Z,0
2017-06-22T00:27:42.411Z,0
2017-06-22T00:28:22.855Z,0
2017-06-22T00:29:03.307Z,0
2017-06-22T00:29:43.765Z,0
2017-06-22T00:30:24.222Z,0
2017-06-22T00:31:04.698Z,0
2017-06-22T00:31:45.148Z,0
2017-06-22T00:32:25.607Z,0
2017-06-22T00:33:06.073Z,0
2017-06-22T00:33:46.526Z,0
2017-06-22T00:34:26.988Z,0
2017-06-22T00:35:07.445Z,0
2017-06-22T00:35:47.901Z,0
2017-06-22T00:36:28.361Z,0
2017-06-22T00:37:08.822Z,0
2017-06-22T00:37:49.276Z,0
2017-06-22T00:38:29.728Z,0
2017-06-22T00:39:10.188Z,0
2017-06-22T00:41:43.687Z,0
2017-06-22T00:42:24.155Z,0
2017-06-22T00:43:04.623Z,0
2017-06-22T00:43:45.081Z,0
2017-06-22T00:44:25.539Z,0
2017-06-22T00:45:06.003Z,0
2017-06-22T00:45:46.455Z,0
2017-06-22T00:46:26.915Z,0
2017-06-22T00:47:07.372Z,0
2017-06-22T00:47:47.831Z,0
2017-06-22T00:48:28.292Z,0
2017-06-22T00:49:08.747Z,0
2017-06-22T00:49:49.209Z,0
2017-06-22T00:50:29.662Z,0
2017-06-22T00:51:10.124Z,0
2017-06-22T00:51:50.583Z,0
2017-06-22T00:52:31.037Z,0
2017-06-22T00:53:11.498Z,0
2017-06-22T00:53:51.956Z,0
2017-06-22T00:54:32.419Z,0
2017-06-22T00:55:12.869Z,0
2017-06-22T00:55:53.328Z,0
2017-06-22T00:56:33.784Z,0
2017-06-22T00:57:14.247Z,0
2017-06-22T00:57:54.708Z,0
2017-06-22T00:58:35.169Z,0
2017-06-22T00:59:15.631Z,0
2017-06-22T00:59:56.079Z,0
2017-06-22T01:00:36.539Z,0
2017-06-22T01:01:17.000Z,0
2017-06-22T01:01:57.456Z,0
2017-06-22T01:04:25.837Z,0
2017-06-22T01:05:06.286Z,0
2017-06-22T01:05:46.740Z,0
2017-06-22T01:06:27.208Z,0
2017-06-22T01:07:07.665Z,0
2017-06-22T01:07:48.121Z,0
2017-06-22T01:08:28.583Z,0
2017-06-22T01:09:09.041Z,0
2017-06-22T01:09:49.497Z,0
2017-06-22T01:10:29.950Z,0
2017-06-22T01:11:10.415Z,0
2017-06-22T01:11:50.871Z,0
2017-06-22T01:12:31.337Z,0
2017-06-22T01:13:11.775Z,0
2017-06-22T01:13:52.227Z,0
2017-06-22T01:14:32.687Z,0
2017-06-22T01:15:13.149Z,0
2017-06-22T01:15:53.608Z,0
2017-06-22T01:16:34.047Z,0
2017-06-22T01:17:14.494Z,0
2017-06-22T01:17:54.955Z,0
2017-06-22T01:18:35.416Z,0
2017-06-22T01:19:15.869Z,0
2017-06-22T01:19:56.327Z,0
2017-06-22T01:20:36.783Z,0
2017-06-22T01:21:17.259Z,0
2017-06-22T01:21:57.727Z,0
2017-06-22T01:22:38.188Z,0
2017-06-22T01:23:18.644Z,0
2017-06-22T01:23:59.098Z,0
2017-06-22T01:24:39.552Z,0
2017-06-22T01:25:19.999Z,0
2017-06-22T01:26:00.458Z,0
2017-06-22T01:26:40.907Z,0
2017-06-22T01:27:21.372Z,0
2017-06-22T01:28:01.854Z,0
2017-06-22T01:28:42.318Z,0
2017-06-22T01:29:22.778Z,0
2017-06-22T01:30:03.233Z,0
2017-06-22T01:30:43.699Z,0
2017-06-22T01:31:24.161Z,0
2017-06-22T01:32:04.621Z,0
2017-06-22T01:32:45.079Z,0
2017-06-22T01:33:25.547Z,0
2017-06-22T01:34:06.005Z,0
2017-06-22T01:34:46.467Z,0
2017-06-22T01:35:26.928Z,0
2017-06-22T01:36:07.384Z,0
2017-06-22T01:36:47.838Z,0
2017-06-22T01:37:28.294Z,0
2017-06-22T01:38:08.757Z,0
2017-06-22T01:38:49.210Z,0
2017-06-22T01:39:29.676Z,0
2017-06-22T01:40:10.138Z,0
2017-06-22T01:40:50.595Z,0
2017-06-22T01:41:31.054Z,0
2017-06-22T01:42:11.496Z,0
2017-06-22T01:42:51.961Z,0
2017-06-22T01:43:32.419Z,0
2017-06-22T01:44:12.882Z,0
2017-06-22T01:44:53.343Z,0
2017-06-22T01:47:11.343Z,0
2017-06-22T01:47:51.801Z,0
2017-06-22T01:48:32.262Z,0
2017-06-22T01:49:12.720Z,0
2017-06-22T01:49:53.185Z,0
2017-06-22T01:50:33.643Z,0
2017-06-22T01:51:14.108Z,0
2017-06-22T01:51:54.562Z,0
2017-06-22T01:52:35.014Z,0
2017-06-22T01:53:15.481Z,0
2017-06-22T01:53:55.931Z,0
2017-06-22T01:54:36.385Z,0
2017-06-22T01:55:16.851Z,0
2017-06-22T01:55:57.309Z,0
2017-06-22T01:56:37.760Z,0
2017-06-22T01:57:18.230Z,0
2017-06-22T01:57:58.693Z,0
2017-06-22T01:58:39.149Z,0
2017-06-22T01:59:19.608Z,0
2017-06-22T02:00:00.065Z,0
2017-06-22T02:00:40.507Z,0
2017-06-22T02:01:20.954Z,0
2017-06-22T02:02:01.405Z,0
2017-06-22T02:02:41.859Z,0
2017-06-22T02:03:22.306Z,0
2017-06-22T02:04:02.765Z,0
2017-06-22T02:04:43.223Z,0
2017-06-22T02:05:23.686Z,0
2017-06-22T02:06:04.148Z,0
2017-06-22T02:06:44.606Z,0
2017-06-22T02:07:25.060Z,0
2017-06-22T02:08:05.540Z,0
2017-06-22T02:08:45.985Z,0
2017-06-22T02:09:26.458Z,0
2017-06-22T02:10:06.889Z,0
2017-06-22T02:10:47.348Z,0
2017-06-22T02:11:27.804Z,0
2017-06-22T02:12:08.261Z,0
2017-06-22T02:12:48.721Z,0
2017-06-22T02:13:29.192Z,0
2017-06-22T02:14:09.651Z,0
2017-06-22T02:14:50.112Z,0
2017-06-22T02:15:30.570Z,0
2017-06-22T02:16:11.030Z,0
2017-06-22T02:16:51.487Z,0
2017-06-22T02:17:31.951Z,0
2017-06-22T02:18:12.410Z,0
2017-06-22T02:18:52.870Z,0
2017-06-22T02:19:33.331Z,0
2017-06-22T02:20:13.791Z,0
2017-06-22T02:20:54.235Z,0
2017-06-22T02:21:34.687Z,0
2017-06-22T02:22:15.142Z,0
2017-06-22T02:22:55.618Z,0
2017-06-22T02:23:36.082Z,0
2017-06-22T02:24:16.529Z,0
2017-06-22T02:24:56.996Z,0
2017-06-22T02:25:37.481Z,0
2017-06-22T02:26:17.943Z,0
2017-06-22T02:26:58.399Z,0
2017-06-22T02:27:38.854Z,0
2017-06-22T02:28:19.313Z,0
2017-06-22T02:28:59.785Z,0
2017-06-22T02:29:40.249Z,0
2017-06-22T02:30:20.707Z,0
2017-06-22T02:31:01.166Z,0
2017-06-22T02:31:41.614Z,0
2017-06-22T02:32:22.073Z,0
2017-06-22T02:33:02.526Z,0
2017-06-22T02:33:42.969Z,0
2017-06-22T02:34:23.433Z,0
2017-06-22T02:35:03.888Z,0
2017-06-22T02:35:44.364Z,0
2017-06-22T02:36:24.824Z,0
2017-06-22T02:37:05.284Z,0
2017-06-22T02:37:45.761Z,0
2017-06-22T02:38:26.200Z,0
2017-06-22T02:39:06.663Z,0
2017-06-22T02:39:47.129Z,0
2017-06-22T02:40:27.582Z,0
2017-06-22T02:41:08.037Z,0
2017-06-22T02:41:48.496Z,0
2017-06-22T02:42:28.957Z,0
2017-06-22T02:43:09.415Z,0
2017-06-22T02:43:49.873Z,0
2017-06-22T02:44:30.326Z,0
2017-06-22T02:45:10.781Z,0
2017-06-22T02:45:51.249Z,0
2017-06-22T02:46:31.684Z,0
2017-06-22T02:47:12.145Z,0
2017-06-22T02:47:52.622Z,0
2017-06-22T02:48:33.073Z,0
2017-06-22T02:49:13.529Z,0
2017-06-22T02:49:53.981Z,0
2017-06-22T02:50:34.427Z,0
2017-06-22T02:51:14.890Z,0
2017-06-22T02:51:55.345Z,0
2017-06-22T02:52:35.805Z,0
2017-06-22T02:53:16.263Z,0
2017-06-22T02:53:56.745Z,0
2017-06-22T02:54:37.199Z,0
2017-06-22T02:55:17.652Z,0
2017-06-22T02:57:30.735Z,0
2017-06-22T02:58:11.194Z,0
2017-06-22T02:58:51.650Z,0
2017-06-22T02:59:32.117Z,0
2017-06-22T03:00:12.575Z,0
2017-06-22T03:00:53.036Z,0
2017-06-22T03:01:33.492Z,0
2017-06-22T03:02:13.951Z,0
2017-06-22T03:02:54.408Z,0
2017-06-22T03:03:34.875Z,0
2017-06-22T03:04:15.321Z,0
2017-06-22T03:04:55.772Z,0
2017-06-22T03:05:36.240Z,0
2017-06-22T03:06:16.681Z,0
2017-06-22T03:06:57.141Z,0
2017-06-22T03:07:37.610Z,0
2017-06-22T03:08:18.052Z,0
2017-06-22T03:08:58.502Z,0
2017-06-22T03:09:38.964Z,0
2017-06-22T03:10:19.422Z,0
2017-06-22T03:10:59.881Z,0
2017-06-22T03:11:40.340Z,0
2017-06-22T03:12:20.801Z,0
2017-06-22T03:13:01.296Z,0
2017-06-22T03:13:41.755Z,0
2017-06-22T03:14:22.214Z,0
2017-06-22T03:15:02.676Z,0
2017-06-22T03:15:43.106Z,0
2017-06-22T03:16:23.566Z,0
2017-06-22T03:17:04.026Z,0
2017-06-22T03:17:44.490Z,0
2017-06-22T03:18:24.948Z,0
2017-06-22T03:19:05.410Z,0
2017-06-22T03:19:45.869Z,0
2017-06-22T03:20:26.329Z,0
2017-06-22T03:21:06.805Z,0
2017-06-22T03:21:47.264Z,0
2017-06-22T03:22:27.739Z,0
2017-06-22T03:23:08.200Z,0
2017-06-22T03:23:48.653Z,0
2017-06-22T03:24:29.126Z,0
2017-06-22T03:25:09.575Z,0
2017-06-22T03:25:50.031Z,0
2017-06-22T03:26:30.493Z,0
2017-06-22T03:27:10.947Z,0
2017-06-22T03:27:51.399Z,0
2017-06-22T03:28:31.858Z,0
2017-06-22T03:29:12.312Z,0
2017-06-22T03:29:52.769Z,0
2017-06-22T03:30:33.232Z,0
2017-06-22T03:31:13.695Z,0
2017-06-22T03:31:54.153Z,0
2017-06-22T03:32:34.596Z,0
2017-06-22T03:33:15.054Z,0
2017-06-22T03:33:55.511Z,0
2017-06-22T03:34:35.974Z,0
2017-06-22T03:35:16.430Z,4
2017-06-22T03:35:56.889Z,4
2017-06-22T03:36:37.369Z,4
2017-06-22T03:37:17.823Z,4
2017-06-22T03:37:58.302Z,4
2017-06-22T03:38:38.748Z,4
2017-06-22T03:39:19.209Z,0
2017-06-22T03:39:59.645Z,0
2017-06-22T03:40:40.107Z,0
2017-06-22T03:41:20.561Z,0
2017-06-22T03:42:01.007Z,0
2017-06-22T03:42:41.454Z,0
2017-06-22T03:43:21.912Z,0
2017-06-22T03:44:02.367Z,0
2017-06-22T03:44:42.829Z,0
2017-06-22T03:45:23.291Z,0
2017-06-22T03:46:03.742Z,0
2017-06-22T03:46:44.211Z,0
2017-06-22T03:48:57.476Z,0
2017-06-22T03:49:37.924Z,4
2017-06-22T03:50:18.395Z,112
2017-06-22T03:50:58.853Z,156
2017-06-22T03:51:39.298Z,160
2017-06-22T03:52:19.762Z,164
2017-06-22T03:53:00.212Z,168
2017-06-22T03:53:40.664Z,72
2017-06-22T03:54:21.120Z,72
2017-06-22T03:55:01.590Z,76
2017-06-22T03:55:42.039Z,76
2017-06-22T03:56:22.483Z,76
2017-06-22T03:57:02.945Z,80
2017-06-22T03:57:43.405Z,80
2017-06-22T03:58:23.857Z,84
2017-06-22T03:59:04.313Z,84
2017-06-22T03:59:44.774Z,84
2017-06-22T04:00:25.257Z,88
2017-06-22T04:01:05.744Z,88
2017-06-22T04:01:46.205Z,92
2017-06-22T04:02:26.659Z,92
2017-06-22T04:03:07.118Z,96
2017-06-22T04:03:47.575Z,96
2017-06-22T04:04:28.036Z,100
2017-06-22T04:05:08.501Z,100
2017-06-22T04:05:48.963Z,100
2017-06-22T04:06:29.424Z,104
2017-06-22T04:07:09.888Z,104
2017-06-22T04:07:50.332Z,108
2017-06-22T04:08:30.790Z,108
2017-06-22T04:09:11.236Z,108
2017-06-22T04:09:51.694Z,112
2017-06-22T04:10:32.143Z,112
2017-06-22T04:11:12.602Z,116
2017-06-22T04:11:53.064Z,116
2017-06-22T04:12:33.543Z,120
2017-06-22T04:13:13.994Z,120
2017-06-22T04:13:54.445Z,124
2017-06-22T04:14:34.909Z,128
2017-06-22T04:15:15.368Z,128
2017-06-22T04:15:55.827Z,132
2017-06-22T04:16:36.284Z,132
2017-06-22T04:17:16.749Z,136
2017-06-22T04:17:57.208Z,140
2017-06-22T04:18:37.664Z,136
2017-06-22T04:19:18.122Z,140
2017-06-22T04:19:58.584Z,144
2017-06-22T04:20:39.044Z,148
2017-06-22T04:21:19.505Z,148
2017-06-22T04:21:59.975Z,152
2017-06-22T04:22:40.453Z,152
2017-06-22T04:23:20.917Z,156
2017-06-22T04:24:01.372Z,156
2017-06-22T04:24:41.857Z,160
2017-06-22T04:25:22.284Z,164
2017-06-22T04:26:02.743Z,168
2017-06-22T04:26:43.192Z,172
2017-06-22T04:27:23.645Z,172
2017-06-22T04:28:04.097Z,176
2017-06-22T04:28:44.551Z,180
2017-06-22T04:29:25.005Z,180
2017-06-22T04:30:05.465Z,184
2017-06-22T04:30:45.918Z,188
2017-06-22T04:31:26.380Z,188
2017-06-22T04:32:06.838Z,192
2017-06-22T04:32:47.301Z,196
2017-06-22T04:33:27.768Z,200
2017-06-22T04:34:08.232Z,204
2017-06-22T04:34:48.690Z,204
2017-06-22T04:35:29.132Z,204
2017-06-22T04:36:09.597Z,208
2017-06-22T04:36:50.058Z,212
2017-06-22T04:37:30.515Z,216
2017-06-22T04:38:10.977Z,216
2017-06-22T04:38:51.437Z,220
2017-06-22T04:39:31.897Z,220
2017-06-22T04:40:12.359Z,224
2017-06-22T04:40:52.824Z,228
2017-06-22T04:41:33.278Z,228
2017-06-22T04:42:13.739Z,232
2017-06-22T04:42:54.196Z,236
2017-06-22T04:43:34.649Z,236
2017-06-22T04:44:15.108Z,244
2017-06-22T04:44:55.568Z,244
2017-06-22T04:45:36.035Z,248
2017-06-22T04:46:16.491Z,252
2017-06-22T04:46:56.949Z,252
2017-06-22T04:47:37.411Z,260
2017-06-22T04:48:17.865Z,260
2017-06-22T04:48:58.363Z,264
2017-06-22T04:49:38.858Z,268
2017-06-22T04:50:19.293Z,268
2017-06-22T04:50:59.773Z,276
2017-06-22T04:51:40.239Z,280
2017-06-22T04:52:20.692Z,280
2017-06-22T04:53:01.146Z,284
2017-06-22T04:53:41.609Z,288
2017-06-22T04:54:22.061Z,288
2017-06-22T04:55:02.506Z,292
2017-06-22T04:55:42.965Z,292
2017-06-22T04:56:23.420Z,300
2017-06-22T04:57:03.869Z,300
2017-06-22T04:57:44.350Z,304
2017-06-22T04:58:24.805Z,308
2017-06-22T04:59:05.269Z,312
2017-06-22T04:59:45.727Z,312
2017-06-22T05:00:26.179Z,320
2017-06-22T05:01:06.660Z,324
2017-06-22T05:01:47.094Z,328
2017-06-22T05:02:27.548Z,328
2017-06-22T05:03:08.004Z,336
2017-06-22T05:03:48.488Z,340
2017-06-22T05:04:28.956Z,340
2017-06-22T05:05:09.412Z,348
2017-06-22T05:05:49.872Z,344
2017-06-22T05:06:30.331Z,352
2017-06-22T05:07:10.786Z,352
2017-06-22T05:07:51.243Z,356
2017-06-22T05:08:31.697Z,360
2017-06-22T05:09:12.158Z,364
2017-06-22T05:09:52.614Z,364
2017-06-22T05:10:33.063Z,368
2017-06-22T05:11:13.521Z,368
2017-06-22T05:11:53.980Z,372
2017-06-22T05:12:34.438Z,376
2017-06-22T05:13:14.896Z,376
2017-06-22T05:13:55.354Z,380
2017-06-22T05:14:35.814Z,384
2017-06-22T05:15:16.271Z,392
2017-06-22T05:15:56.733Z,396
2017-06-22T05:16:37.184Z,400
2017-06-22T05:17:17.640Z,400
2017-06-22T05:17:58.096Z,408
2017-06-22T05:18:38.550Z,408
2017-06-22T05:19:19.012Z,412
2017-06-22T05:19:59.470Z,412
2017-06-22T05:20:39.923Z,420
2017-06-22T05:21:20.382Z,424
2017-06-22T05:22:00.842Z,428
2017-06-22T05:22:41.298Z,432
2017-06-22T05:23:21.754Z,432
2017-06-22T05:24:02.210Z,440
2017-06-22T05:24:42.670Z,440
2017-06-22T05:25:23.128Z,444
2017-06-22T05:26:03.590Z,448
2017-06-22T05:26:44.050Z,452
2017-06-22T05:27:24.510Z,456
2017-06-22T05:28:04.967Z,460
2017-06-22T05:28:45.425Z,464
2017-06-22T05:29:25.885Z,464
2017-06-22T05:30:06.344Z,468
2017-06-22T05:30:46.801Z,468
2017-06-22T05:31:27.258Z,472
2017-06-22T05:32:07.717Z,476
2017-06-22T05:32:48.173Z,480
2017-06-22T05:33:28.638Z,484
2017-06-22T05:34:09.091Z,484
2017-06-22T05:34:49.547Z,484
2017-06-22T05:35:30.008Z,492
2017-06-22T05:36:10.468Z,492
2017-06-22T05:36:50.933Z,496
2017-06-22T05:37:31.390Z,496
2017-06-22T05:38:11.843Z,492
2017-06-22T05:38:52.294Z,496
2017-06-22T05:39:32.739Z,496
2017-06-22T05:40:13.202Z,492
2017-06-22T05:40:53.667Z,496
2017-06-22T05:41:34.135Z,496
2017-06-22T05:42:14.590Z,508
2017-06-22T05:42:55.051Z,520
2017-06-22T05:43:35.502Z,520
2017-06-22T05:44:15.953Z,520
2017-06-22T05:44:56.407Z,532
2017-06-22T05:45:36.855Z,532
2017-06-22T05:46:17.313Z,516
2017-06-22T05:46:57.777Z,540
2017-06-22T05:47:38.248Z,548
2017-06-22T05:48:18.702Z,544
2017-06-22T05:48:59.161Z,532
2017-06-22T05:49:39.624Z,508
2017-06-22T05:50:20.082Z,496
2017-06-22T05:51:00.536Z,508
2017-06-22T05:51:40.996Z,504
2017-06-22T05:52:21.455Z,524
2017-06-22T05:53:01.915Z,536
2017-06-22T05:53:42.370Z,536
2017-06-22T05:54:22.831Z,520
2017-06-22T05:55:03.290Z,532
2017-06-22T05:55:43.746Z,540
2017-06-22T05:56:24.206Z,528
2017-06-22T05:57:04.669Z,520
2017-06-22T05:57:45.123Z,524
2017-06-22T05:58:25.579Z,528
2017-06-22T05:59:06.030Z,544
2017-06-22T05:59:46.496Z,544
2017-06-22T06:00:26.956Z,532
2017-06-22T06:01:07.415Z,536
2017-06-22T06:01:47.890Z,548
2017-06-22T06:02:28.332Z,548
2017-06-22T06:03:08.790Z,572
2017-06-22T06:03:49.255Z,568
2017-06-22T06:04:29.706Z,564
2017-06-22T06:05:10.175Z,560
2017-06-22T06:05:50.633Z,572
2017-06-22T06:06:31.088Z,580
2017-06-22T06:07:11.542Z,616
2017-06-22T06:07:52.003Z,636
2017-06-22T06:08:32.464Z,652
2017-06-22T06:09:12.925Z,672
2017-06-22T06:09:53.384Z,672
2017-06-22T06:10:33.844Z,676
2017-06-22T06:11:14.301Z,680
2017-06-22T06:11:54.759Z,688
2017-06-22T06:12:35.215Z,692
2017-06-22T06:13:15.673Z,696
2017-06-22T06:13:56.134Z,700
2017-06-22T06:14:36.593Z,712
2017-06-22T06:15:17.059Z,712
2017-06-22T06:15:57.517Z,720
2017-06-22T06:16:37.972Z,724
2017-06-22T06:17:18.427Z,732
2017-06-22T06:17:58.884Z,736
2017-06-22T06:18:39.342Z,736
2017-06-22T06:19:19.800Z,740
2017-06-22T06:20:00.263Z,744
2017-06-22T06:20:40.725Z,752
2017-06-22T06:21:21.184Z,760
2017-06-22T06:22:01.642Z,764
2017-06-22T06:22:42.103Z,768
2017-06-22T06:23:22.561Z,776
2017-06-22T06:24:03.028Z,776
2017-06-22T06:24:43.489Z,784
2017-06-22T06:25:23.949Z,784
2017-06-22T06:26:04.425Z,792
2017-06-22T06:26:44.884Z,796
2017-06-22T06:27:25.341Z,800
2017-06-22T06:28:05.800Z,804
2017-06-22T06:28:46.257Z,808
2017-06-22T06:29:26.719Z,812
2017-06-22T06:30:07.179Z,812
2017-06-22T06:30:47.642Z,772
2017-06-22T06:31:28.132Z,820
2017-06-22T06:32:08.592Z,828
2017-06-22T06:32:49.050Z,832
2017-06-22T06:33:29.514Z,832
2017-06-22T06:34:09.975Z,836
2017-06-22T06:34:50.434Z,840
2017-06-22T06:35:30.894Z,840
2017-06-22T06:36:11.356Z,852
2017-06-22T06:36:51.822Z,852
2017-06-22T06:37:32.280Z,856
2017-06-22T06:38:12.745Z,864
2017-06-22T06:38:53.203Z,868
2017-06-22T06:39:33.662Z,848
2017-06-22T06:40:14.124Z,840
2017-06-22T06:40:54.583Z,856
2017-06-22T06:41:35.049Z,868
2017-06-22T06:42:15.508Z,872
2017-06-22T06:42:55.971Z,872
2017-06-22T06:43:36.431Z,880
2017-06-22T06:44:16.891Z,884
2017-06-22T06:44:57.354Z,884
2017-06-22T06:45:37.817Z,892
2017-06-22T06:46:18.276Z,892
2017-06-22T06:46:58.735Z,888
2017-06-22T06:47:39.192Z,892
2017-06-22T06:48:19.651Z,880
2017-06-22T06:49:00.113Z,828
2017-06-22T06:49:40.568Z,876
2017-06-22T06:50:21.020Z,856
2017-06-22T06:51:01.483Z,864
2017-06-22T06:51:41.949Z,900
2017-06-22T06:52:22.410Z,908
2017-06-22T06:53:02.861Z,908
2017-06-22T06:53:43.341Z,912
2017-06-22T06:54:23.804Z,924
2017-06-22T06:55:04.262Z,924
2017-06-22T06:55:44.723Z,928
2017-06-22T06:56:25.181Z,928
2017-06-22T06:57:05.644Z,924
2017-06-22T06:57:46.119Z,924
2017-06-22T06:58:26.576Z,932
2017-06-22T06:59:07.034Z,944
2017-06-22T06:59:47.501Z,924
2017-06-22T07:00:27.957Z,952
2017-06-22T07:01:08.416Z,944
2017-06-22T07:01:48.877Z,904
2017-06-22T07:02:29.339Z,892
2017-06-22T07:03:09.800Z,988
2017-06-22T07:03:50.261Z,888
2017-06-22T07:04:30.721Z,884
2017-06-22T07:05:11.184Z,916
2017-06-22T07:05:51.640Z,992
2017-06-22T07:06:32.125Z,1016
2017-06-22T07:07:12.570Z,1020
2017-06-22T07:07:53.032Z,1024
2017-06-22T07:08:33.491Z,1028
2017-06-22T07:09:13.950Z,1028
2017-06-22T07:09:54.411Z,1024
2017-06-22T07:10:34.871Z,1020
2017-06-22T07:11:15.331Z,1020
2017-06-22T07:11:55.796Z,1028
2017-06-22T07:12:36.246Z,1032
2017-06-22T07:13:16.712Z,1048
2017-06-22T07:13:57.171Z,1060
2017-06-22T07:14:37.627Z,1068
2017-06-22T07:15:18.087Z,1072
2017-06-22T07:15:58.547Z,1084
2017-06-22T07:16:39.009Z,1096
2017-06-22T07:17:19.468Z,1088
2017-06-22T07:17:59.930Z,1080
2017-06-22T07:18:40.391Z,1076
2017-06-22T07:19:20.847Z,1080
2017-06-22T07:20:01.314Z,1100
2017-06-22T07:20:41.801Z,1096
2017-06-22T07:21:22.224Z,1100
2017-06-22T07:22:02.686Z,1136
2017-06-22T07:22:43.146Z,1104
2017-06-22T07:23:23.608Z,1132
2017-06-22T07:24:04.065Z,1124
2017-06-22T07:24:44.525Z,1124
2017-06-22T07:25:24.984Z,1156
2017-06-22T07:26:05.445Z,1152
2017-06-22T07:26:45.906Z,1156
2017-06-22T07:27:26.362Z,1140
2017-06-22T07:28:06.823Z,1180
2017-06-22T07:28:47.281Z,1168
2017-06-22T07:29:27.742Z,1164
2017-06-22T07:30:08.203Z,1184
2017-06-22T07:30:48.664Z,1132
2017-06-22T07:31:29.119Z,1188
2017-06-22T07:32:09.577Z,1208
2017-06-22T07:32:50.038Z,1216
2017-06-22T07:33:30.499Z,1224
2017-06-22T07:34:10.957Z,1212
2017-06-22T07:34:51.421Z,1256
2017-06-22T07:35:31.888Z,1244
2017-06-22T07:36:12.347Z,1300
2017-06-22T07:36:52.833Z,1320
2017-06-22T07:37:33.291Z,1320
2017-06-22T07:38:13.760Z,1300
2017-06-22T07:38:54.222Z,1320
2017-06-22T07:39:34.681Z,1312
2017-06-22T07:40:15.147Z,1356
2017-06-22T07:40:55.595Z,1364
2017-06-22T07:41:36.045Z,1324
2017-06-22T07:42:16.507Z,1308
2017-06-22T07:42:56.968Z,1288
2017-06-22T07:43:37.425Z,1368
2017-06-22T07:44:17.885Z,1372
2017-06-22T07:44:58.348Z,1388
2017-06-22T07:45:38.842Z,1376
2017-06-22T07:46:19.268Z,1376
2017-06-22T07:46:59.731Z,1388
2017-06-22T07:47:40.187Z,1372
2017-06-22T07:48:20.648Z,1364
2017-06-22T07:49:01.108Z,1332
2017-06-22T07:49:41.563Z,1340
2017-06-22T07:50:22.021Z,1380
2017-06-22T07:51:02.535Z,1348
2017-06-22T07:51:42.990Z,1324
2017-06-22T07:52:23.456Z,1348
2017-06-22T07:53:03.940Z,1304
2017-06-22T07:53:44.404Z,1380
2017-06-22T07:54:24.868Z,1404
2017-06-22T07:55:05.321Z,1424
2017-06-22T07:55:45.778Z,1444
2017-06-22T07:56:26.232Z,1412
2017-06-22T07:57:06.690Z,1436
2017-06-22T07:57:47.146Z,1408
2017-06-22T07:58:27.637Z,1432
2017-06-22T07:59:08.100Z,1452
2017-06-22T07:59:48.566Z,1400
2017-06-22T08:00:29.020Z,1428
2017-06-22T08:01:09.478Z,1400
2017-06-22T08:01:49.946Z,1356
2017-06-22T08:02:30.407Z,1348
2017-06-22T08:03:10.870Z,1352
2017-06-22T08:03:51.330Z,1348
2017-06-22T08:04:31.799Z,1396
2017-06-22T08:05:12.257Z,1456
2017-06-22T08:05:52.712Z,1544
2017-06-22T08:06:33.166Z,1556
2017-06-22T08:07:13.638Z,1588
2017-06-22T08:07:54.109Z,1528
2017-06-22T08:08:34.567Z,1520
2017-06-22T08:09:15.051Z,1580
2017-06-22T08:09:55.502Z,1584
2017-06-22T08:10:35.956Z,1628
2017-06-22T08:11:16.421Z,1628
2017-06-22T08:11:56.877Z,1620
2017-06-22T08:12:37.360Z,1624
2017-06-22T08:13:17.818Z,1636
2017-06-22T08:13:58.282Z,1604
2017-06-22T08:14:38.736Z,1712
2017-06-22T08:15:19.201Z,1692
2017-06-22T08:15:59.656Z,1664
2017-06-22T08:16:40.125Z,1644
2017-06-22T08:17:20.590Z,1712
2017-06-22T08:18:01.050Z,1704
2017-06-22T08:18:41.512Z,1704
2017-06-22T08:19:21.973Z,1760
2017-06-22T08:20:02.427Z,1808
2017-06-22T08:20:42.887Z,1788
2017-06-22T08:21:23.352Z,1804
2017-06-22T08:22:03.810Z,1772
2017-06-22T08:22:44.281Z,1680
2017-06-22T08:23:24.735Z,1696
2017-06-22T08:24:05.200Z,1660
2017-06-22T08:24:45.659Z,1648
2017-06-22T08:25:26.120Z,1632
2017-06-22T08:26:06.578Z,1540
2017-06-22T08:26:47.045Z,1556
2017-06-22T08:27:27.533Z,1608
2017-06-22T08:28:07.989Z,1556
2017-06-22T08:28:48.450Z,1596
2017-06-22T08:29:28.910Z,1612
2017-06-22T08:31:57.089Z,1652
2017-06-22T08:32:37.548Z,1660
2017-06-22T08:33:17.998Z,1664
2017-06-22T08:33:58.461Z,1664
2017-06-22T08:34:38.924Z,1784
2017-06-22T08:35:19.381Z,1784
2017-06-22T08:35:59.839Z,1740
2017-06-22T08:36:40.298Z,1636
2017-06-22T08:37:20.759Z,1700
2017-06-22T08:38:01.218Z,1776
2017-06-22T08:38:41.666Z,1760
2017-06-22T08:39:22.126Z,1748
2017-06-22T08:40:02.578Z,1788
2017-06-22T08:40:43.064Z,1756
2017-06-22T08:41:23.522Z,1740
2017-06-22T08:42:03.983Z,1752
2017-06-22T08:42:44.453Z,1808
2017-06-22T08:43:24.905Z,1784
2017-06-22T08:44:05.360Z,1816
2017-06-22T08:44:45.818Z,1832
2017-06-22T08:45:26.277Z,1848
2017-06-22T08:46:06.733Z,1908
2017-06-22T08:46:47.196Z,1912
2017-06-22T08:47:27.633Z,1852
2017-06-22T08:48:08.101Z,1780
2017-06-22T08:48:48.560Z,1868
2017-06-22T08:49:29.017Z,1972
2017-06-22T08:50:09.485Z,1988
2017-06-22T08:50:49.928Z,2052
2017-06-22T08:51:30.384Z,2036
2017-06-22T08:52:10.832Z,1968
2017-06-22T08:52:51.293Z,2044
2017-06-22T08:53:31.750Z,2048
2017-06-22T08:54:12.202Z,2020
2017-06-22T08:54:52.647Z,2080
2017-06-22T08:55:33.106Z,2160
2017-06-22T08:56:13.570Z,2100
2017-06-22T08:56:54.019Z,1996
2017-06-22T08:57:34.479Z,2068
2017-06-22T08:58:14.939Z,2020
2017-06-22T08:58:55.399Z,1988
2017-06-22T08:59:35.856Z,2004
2017-06-22T09:00:16.315Z,1988
2017-06-22T09:00:56.781Z,2072
2017-06-22T09:01:37.235Z,2124
2017-06-22T09:02:17.693Z,2052
2017-06-22T09:02:58.156Z,2016
2017-06-22T09:03:38.613Z,2008
2017-06-22T09:04:19.073Z,1984
2017-06-22T09:04:59.533Z,1908
2017-06-22T09:05:39.994Z,1936
2017-06-22T09:06:20.442Z,1900
2017-06-22T09:07:00.888Z,1908
2017-06-22T09:07:41.339Z,1944
2017-06-22T09:08:21.795Z,1972
2017-06-22T09:09:02.265Z,2016
2017-06-22T09:09:42.721Z,2064
2017-06-22T09:10:23.212Z,2132
2017-06-22T09:11:03.637Z,2128
2017-06-22T09:11:44.098Z,2152
2017-06-22T09:12:24.552Z,2096
2017-06-22T09:13:05.011Z,2164
2017-06-22T09:13:45.474Z,2024
2017-06-22T09:14:25.921Z,2100
2017-06-22T09:15:06.378Z,2136
2017-06-22T09:15:46.834Z,2020
2017-06-22T09:16:27.299Z,2096
2017-06-22T09:17:07.756Z,1992
2017-06-22T09:17:48.220Z,1972
2017-06-22T09:18:28.688Z,2036
2017-06-22T09:19:09.136Z,2060
2017-06-22T09:19:49.598Z,2100
2017-06-22T09:22:22.696Z,2032
2017-06-22T09:23:03.179Z,1976
2017-06-22T09:23:43.623Z,1984
2017-06-22T09:24:24.076Z,2004
2017-06-22T09:25:04.532Z,1960
2017-06-22T09:25:44.992Z,1996
2017-06-22T09:26:25.453Z,1944
2017-06-22T09:27:05.911Z,1948
2017-06-22T09:27:46.371Z,1992
2017-06-22T09:28:26.829Z,1964
2017-06-22T09:29:07.281Z,2056
2017-06-22T09:29:47.730Z,2100
2017-06-22T09:30:28.179Z,2148
2017-06-22T09:31:08.653Z,2180
2017-06-22T09:31:49.099Z,2284
2017-06-22T09:32:29.536Z,2328
2017-06-22T09:33:09.986Z,2276
2017-06-22T09:33:50.447Z,2204
2017-06-22T09:34:30.904Z,2176
2017-06-22T09:35:11.369Z,2048
2017-06-22T09:35:51.865Z,2032
2017-06-22T09:36:32.316Z,1992
2017-06-22T09:37:12.771Z,1924
2017-06-22T09:37:53.233Z,1816
2017-06-22T09:38:33.684Z,1784
2017-06-22T09:39:14.139Z,1868